createdAt,value
2023-03-31T00:02:15.824Z,11.60
2023-03-31T00:04:52.652Z,11.60
2023-03-31T00:07:25.905Z,11.60
2023-03-31T00:10:16.450Z,11.60
2023-03-31T00:12:50.922Z,11.60
2023-03-31T00:15:23.935Z,11.60
2023-03-31T00:18:00.388Z,11.60
2023-03-31T00:20:33.535Z,11.60
2023-03-31T00:23:11.245Z,11.50
2023-03-31T00:25:44.806Z,11.50
2023-03-31T00:28:17.628Z,11.40
2023-03-31T00:30:51.514Z,11.40
2023-03-31T00:33:24.287Z,11.40
2023-03-31T00:36:01.748Z,11.30
2023-03-31T00:38:35.291Z,11.30
2023-03-31T00:41:08.561Z,11.30
2023-03-31T00:43:42.098Z,11.20
2023-03-31T00:46:22.679Z,11.10
2023-03-31T00:48:57.800Z,11.10
2023-03-31T00:51:34.582Z,11.10
2023-03-31T00:54:08.364Z,11.00
2023-03-31T00:56:48.143Z,11.00
2023-03-31T00:59:24.872Z,10.90
2023-03-31T01:01:59.318Z,10.90
2023-03-31T01:04:36.484Z,10.80
2023-03-31T01:07:17.208Z,10.80
2023-03-31T01:09:51.605Z,10.80
2023-03-31T01:12:26.576Z,10.80
2023-03-31T01:15:01.405Z,10.70
2023-03-31T01:17:34.855Z,10.70
2023-03-31T01:20:18.115Z,10.70
2023-03-31T01:23:06.906Z,10.70
2023-03-31T01:26:18.285Z,10.70
2023-03-31T01:29:08.729Z,10.70
2023-03-31T01:32:12.645Z,10.70
2023-03-31T01:34:52.699Z,10.70
2023-03-31T01:37:44.877Z,10.60
2023-03-31T01:40:23.766Z,10.60
2023-03-31T01:42:59.632Z,10.60
2023-03-31T01:46:02.245Z,10.60
2023-03-31T01:48:58.211Z,10.60
2023-03-31T01:51:43.642Z,10.60
2023-03-31T01:54:23.298Z,10.60
2023-03-31T01:57:00.283Z,10.60
2023-03-31T01:59:35.471Z,10.60
2023-03-31T02:02:22.022Z,10.60
2023-03-31T02:05:13.526Z,10.60
2023-03-31T02:07:56.366Z,10.60
2023-03-31T02:10:31.844Z,10.60
2023-03-31T02:13:06.774Z,10.70
2023-03-31T02:15:42.438Z,10.60
2023-03-31T02:18:19.048Z,10.60
2023-03-31T02:20:54.787Z,10.50
2023-03-31T02:23:31.625Z,10.60
2023-03-31T02:26:07.045Z,10.60
2023-03-31T02:28:40.606Z,10.60
2023-03-31T02:31:19.043Z,10.60
2023-03-31T02:33:52.063Z,10.50
2023-03-31T02:36:25.272Z,10.50
2023-03-31T02:39:05.403Z,10.50
2023-03-31T02:41:38.571Z,10.50
2023-03-31T02:44:12.052Z,10.40
2023-03-31T02:46:45.660Z,10.40
2023-03-31T02:49:19.313Z,10.40
2023-03-31T02:52:10.090Z,10.40
2023-03-31T02:55:14.472Z,10.40
2023-03-31T02:58:18.456Z,10.40
2023-03-31T03:01:29.315Z,10.50
2023-03-31T03:04:25.603Z,10.50
2023-03-31T03:07:09.897Z,10.50
2023-03-31T03:09:59.422Z,10.50
2023-03-31T03:12:53.748Z,10.40
2023-03-31T03:15:33.605Z,10.40
2023-03-31T03:18:06.670Z,10.40
2023-03-31T03:20:40.513Z,10.40
2023-03-31T03:23:13.205Z,10.30
2023-03-31T03:25:46.810Z,10.30
2023-03-31T03:28:19.942Z,10.30
2023-03-31T03:30:53.382Z,10.30
2023-03-31T03:33:26.027Z,10.30
2023-03-31T03:35:58.727Z,10.20
2023-03-31T03:38:31.525Z,10.20
2023-03-31T03:41:04.502Z,10.20
2023-03-31T03:43:37.321Z,10.20
2023-03-31T03:46:10.191Z,10.10
2023-03-31T03:48:43.026Z,10.10
2023-03-31T03:51:16.298Z,10.20
2023-03-31T03:53:49.149Z,10.10
2023-03-31T03:56:22.029Z,10.10
2023-03-31T03:58:54.929Z,10.10
2023-03-31T04:01:27.619Z,10.10
2023-03-31T04:04:00.493Z,10.10
2023-03-31T04:06:33.188Z,10.10
2023-03-31T04:09:06.348Z,10.10
2023-03-31T04:11:39.070Z,10.10
2023-03-31T04:14:12.059Z,10.10
2023-03-31T04:16:46.639Z,10.10
2023-03-31T04:19:21.743Z,10.10
2023-03-31T04:22:02.604Z,10.10
2023-03-31T04:24:38.744Z,10.10
2023-03-31T04:27:13.327Z,10.00
2023-03-31T04:29:47.485Z,10.00
2023-03-31T04:32:21.947Z,10.00
2023-03-31T04:35:03.245Z,10.00
2023-03-31T04:37:38.769Z,10.00
2023-03-31T04:40:12.100Z,10.00
2023-03-31T04:42:45.373Z,9.90
2023-03-31T04:45:18.632Z,9.90
2023-03-31T04:47:51.435Z,10.00
2023-03-31T04:50:24.251Z,9.90
2023-03-31T04:52:56.918Z,9.90
2023-03-31T04:55:29.787Z,9.90
2023-03-31T04:58:02.519Z,9.90
2023-03-31T05:00:35.246Z,10.00
2023-03-31T05:03:09.876Z,10.00
2023-03-31T05:05:42.616Z,10.00
2023-03-31T05:08:15.417Z,10.10
2023-03-31T05:10:48.111Z,10.10
2023-03-31T05:13:21.149Z,10.10
2023-03-31T05:15:53.802Z,10.20
2023-03-31T05:18:26.610Z,10.10
2023-03-31T05:21:18.415Z,10.10
2023-03-31T05:23:51.417Z,10.10
2023-03-31T05:26:25.288Z,10.10
2023-03-31T05:28:58.008Z,10.10
2023-03-31T05:31:30.687Z,10.10
2023-03-31T05:34:03.344Z,10.10
2023-03-31T05:36:37.413Z,10.10
2023-03-31T05:39:10.264Z,10.00
2023-03-31T05:41:43.105Z,10.00
2023-03-31T05:44:16.410Z,10.00
2023-03-31T05:46:49.224Z,10.00
2023-03-31T05:49:22.234Z,10.00
2023-03-31T05:51:55.048Z,10.00
2023-03-31T05:54:27.956Z,10.00
2023-03-31T05:57:00.964Z,10.00
2023-03-31T05:59:35.646Z,10.10
2023-03-31T06:02:12.350Z,10.10
2023-03-31T06:04:45.201Z,10.10
2023-03-31T06:07:18.327Z,10.20
2023-03-31T06:09:51.498Z,10.30
2023-03-31T06:12:24.154Z,10.40
2023-03-31T06:14:56.922Z,10.40
2023-03-31T06:17:29.766Z,10.50
2023-03-31T06:20:09.955Z,10.60
2023-03-31T06:22:49.050Z,10.60
2023-03-31T06:25:22.171Z,10.60
2023-03-31T06:27:54.843Z,10.60
2023-03-31T06:30:27.554Z,10.60
2023-03-31T06:33:00.724Z,10.60
2023-03-31T06:35:33.807Z,10.60
2023-03-31T06:38:07.118Z,10.60
2023-03-31T06:40:40.055Z,10.70
2023-03-31T06:43:12.760Z,10.70
2023-03-31T06:45:47.562Z,10.70
2023-03-31T06:48:20.376Z,10.80
2023-03-31T06:50:54.335Z,10.80
2023-03-31T06:53:27.546Z,10.80
2023-03-31T06:56:00.502Z,10.80
2023-03-31T06:58:33.747Z,10.90
2023-03-31T07:01:07.208Z,10.90
2023-03-31T07:03:40.282Z,10.90
2023-03-31T07:06:13.074Z,10.90
2023-03-31T07:08:45.866Z,11.00
2023-03-31T07:11:21.034Z,10.90
2023-03-31T07:13:54.046Z,10.90
2023-03-31T07:16:26.841Z,10.90
2023-03-31T07:18:59.679Z,10.90
2023-03-31T07:21:32.460Z,10.90
2023-03-31T07:24:05.678Z,10.90
2023-03-31T07:26:38.450Z,11.00
2023-03-31T07:29:11.163Z,11.10
2023-03-31T07:31:46.719Z,11.10
2023-03-31T07:34:19.513Z,11.10
2023-03-31T07:36:55.982Z,11.10
2023-03-31T07:39:28.769Z,11.20
2023-03-31T07:42:01.535Z,11.20
2023-03-31T07:44:35.724Z,11.20
2023-03-31T07:47:08.511Z,11.20
2023-03-31T07:49:41.171Z,11.20
2023-03-31T07:52:13.905Z,11.20
2023-03-31T07:54:46.939Z,11.20
2023-03-31T07:57:19.940Z,11.20
2023-03-31T07:59:52.690Z,11.20
2023-03-31T08:02:26.049Z,11.10
2023-03-31T08:04:58.935Z,11.10
2023-03-31T08:07:38.360Z,11.00
2023-03-31T08:10:14.718Z,11.00
2023-03-31T08:12:47.601Z,11.00
2023-03-31T08:15:21.482Z,11.00
2023-03-31T08:17:54.242Z,11.10
2023-03-31T08:20:27.109Z,11.20
2023-03-31T08:23:00.142Z,11.30
2023-03-31T08:25:33.003Z,11.40
2023-03-31T08:28:06.776Z,11.50
2023-03-31T08:30:40.683Z,11.70
2023-03-31T08:33:13.470Z,11.90
2023-03-31T08:35:46.310Z,12.10
2023-03-31T08:38:19.049Z,12.20
2023-03-31T08:40:51.892Z,12.20
2023-03-31T08:43:31.240Z,12.10
2023-03-31T08:46:05.450Z,12.00
2023-03-31T08:48:46.609Z,12.00
2023-03-31T08:51:28.203Z,12.00
2023-03-31T08:54:04.331Z,12.10
2023-03-31T08:56:44.190Z,12.20
2023-03-31T08:59:31.880Z,12.20
2023-03-31T09:02:11.348Z,12.20
2023-03-31T09:05:21.267Z,12.30
2023-03-31T09:08:11.471Z,12.40
2023-03-31T09:11:03.765Z,12.50
2023-03-31T09:14:01.299Z,12.50
2023-03-31T09:16:41.885Z,12.50
2023-03-31T09:19:21.796Z,12.40
2023-03-31T09:21:56.373Z,12.30
2023-03-31T09:24:37.126Z,12.30
2023-03-31T09:27:12.690Z,12.30
2023-03-31T09:30:12.339Z,12.30
2023-03-31T09:32:47.755Z,12.30
2023-03-31T09:35:22.864Z,12.40
2023-03-31T09:37:55.899Z,12.50
2023-03-31T09:40:29.773Z,12.50
2023-03-31T09:43:06.776Z,12.60
2023-03-31T09:45:39.581Z,12.60
2023-03-31T09:48:18.249Z,12.70
2023-03-31T09:50:57.350Z,12.70
2023-03-31T09:53:35.153Z,12.70
2023-03-31T09:56:11.156Z,12.60
2023-03-31T09:58:46.196Z,12.50
2023-03-31T10:01:18.899Z,12.50
2023-03-31T10:03:54.238Z,12.50
2023-03-31T10:06:27.196Z,12.60
2023-03-31T10:09:02.191Z,12.60
2023-03-31T10:11:34.885Z,12.70
2023-03-31T10:14:13.757Z,12.80
2023-03-31T10:16:57.454Z,12.90
2023-03-31T10:19:33.385Z,13.00
2023-03-31T10:22:26.452Z,13.10
2023-03-31T10:25:15.955Z,13.20
2023-03-31T10:27:53.249Z,13.10
2023-03-31T10:30:35.204Z,13.00
2023-03-31T10:33:22.771Z,13.00
2023-03-31T10:35:59.524Z,12.90
2023-03-31T10:38:37.654Z,12.90
2023-03-31T10:41:11.236Z,12.90
2023-03-31T10:43:52.797Z,12.80
2023-03-31T10:46:47.548Z,12.70
2023-03-31T10:49:27.108Z,12.70
2023-03-31T10:52:03.307Z,12.90
2023-03-31T10:54:37.697Z,13.10
2023-03-31T10:57:10.774Z,13.20
2023-03-31T11:00:14.806Z,13.30
2023-03-31T11:03:15.467Z,13.40
2023-03-31T11:05:56.528Z,13.50
2023-03-31T11:08:55.102Z,13.50
2023-03-31T11:11:46.784Z,13.40
2023-03-31T11:14:46.746Z,13.20
2023-03-31T11:17:38.707Z,13.00
2023-03-31T11:20:34.919Z,12.80
2023-03-31T11:23:17.597Z,12.60
2023-03-31T11:26:05.301Z,12.40
2023-03-31T11:29:12.633Z,12.40
2023-03-31T11:31:57.264Z,12.30
2023-03-31T11:35:14.372Z,12.40
2023-03-31T11:37:57.023Z,12.60
2023-03-31T11:40:41.405Z,13.10
2023-03-31T11:43:26.452Z,13.60
2023-03-31T11:46:05.278Z,13.80
2023-03-31T11:48:38.125Z,14.00
2023-03-31T11:51:18.242Z,14.50
2023-03-31T11:53:53.628Z,14.90
2023-03-31T11:56:35.776Z,15.20
2023-03-31T11:59:14.739Z,15.30
2023-03-31T12:02:06.867Z,15.40
2023-03-31T12:04:53.868Z,15.20
2023-03-31T12:07:39.617Z,15.10
2023-03-31T12:10:29.364Z,15.10
2023-03-31T12:13:20.463Z,15.30
2023-03-31T12:16:01.920Z,15.40
2023-03-31T12:18:58.359Z,15.60
2023-03-31T12:21:33.835Z,15.80
2023-03-31T12:24:08.383Z,15.70
2023-03-31T12:26:59.041Z,15.70
2023-03-31T12:29:39.393Z,15.80
2023-03-31T12:32:17.899Z,15.80
2023-03-31T12:35:05.587Z,15.80
2023-03-31T12:37:50.752Z,15.70
2023-03-31T12:40:31.006Z,15.50
2023-03-31T12:43:33.251Z,15.30
2023-03-31T12:46:43.154Z,15.10
2023-03-31T12:49:22.139Z,14.80
2023-03-31T12:52:08.769Z,14.30
2023-03-31T12:54:57.117Z,13.80
2023-03-31T12:57:29.906Z,13.40
2023-03-31T13:00:07.880Z,13.20
2023-03-31T13:02:41.336Z,13.20
2023-03-31T13:05:38.987Z,13.30
2023-03-31T13:08:37.004Z,13.60
2023-03-31T13:11:10.588Z,13.70
2023-03-31T13:14:18.806Z,13.90
2023-03-31T13:16:56.656Z,14.00
2023-03-31T13:19:36.896Z,14.10
2023-03-31T13:22:33.546Z,14.20
2023-03-31T13:25:31.217Z,14.20
2023-03-31T13:28:10.006Z,14.20
2023-03-31T13:30:42.642Z,14.10
2023-03-31T13:33:18.376Z,14.10
2023-03-31T13:36:07.369Z,14.10
2023-03-31T13:38:48.982Z,14.00
2023-03-31T13:41:40.595Z,14.00
2023-03-31T13:44:42.728Z,14.00
2023-03-31T13:47:36.439Z,14.00
2023-03-31T13:50:43.244Z,14.00
2023-03-31T13:54:03.803Z,14.00
2023-03-31T13:56:44.181Z,14.00
2023-03-31T13:59:25.367Z,14.00
2023-03-31T14:02:17.651Z,14.00
2023-03-31T14:05:12.850Z,13.90
2023-03-31T14:07:50.883Z,13.80
2023-03-31T14:10:33.112Z,13.80
2023-03-31T14:13:14.282Z,13.80
2023-03-31T14:15:52.553Z,13.70
2023-03-31T14:18:29.681Z,13.70
2023-03-31T14:21:33.209Z,13.50
2023-03-31T14:24:34.232Z,13.50
2023-03-31T14:27:43.886Z,13.40
2023-03-31T14:30:46.816Z,13.40
2023-03-31T14:33:46.141Z,13.40
2023-03-31T14:36:47.649Z,13.40
2023-03-31T14:39:23.027Z,13.40
2023-03-31T14:41:59.506Z,13.30
2023-03-31T14:44:34.814Z,13.20
2023-03-31T14:47:14.191Z,13.00
2023-03-31T14:49:46.943Z,12.70
2023-03-31T14:52:24.315Z,12.50
2023-03-31T14:54:57.061Z,12.40
2023-03-31T14:57:36.602Z,12.40
2023-03-31T15:00:17.198Z,12.40
2023-03-31T15:02:50.574Z,12.50
2023-03-31T15:05:34.086Z,12.50
2023-03-31T15:08:11.981Z,12.60
2023-03-31T15:10:53.947Z,12.60
2023-03-31T15:14:03.366Z,12.60
2023-03-31T15:16:42.762Z,12.50
2023-03-31T15:19:21.739Z,12.40
2023-03-31T15:22:19.408Z,12.30
2023-03-31T15:24:53.161Z,12.10
2023-03-31T15:27:37.000Z,12.10
2023-03-31T15:30:18.853Z,12.10
2023-03-31T15:32:58.803Z,12.20
2023-03-31T15:35:37.170Z,12.20
2023-03-31T15:38:12.293Z,12.20
2023-03-31T15:40:50.694Z,12.20
2023-03-31T15:43:31.133Z,12.10
2023-03-31T15:46:04.245Z,12.10
2023-03-31T15:48:50.259Z,12.00
2023-03-31T15:51:32.670Z,11.60
2023-03-31T15:54:36.953Z,11.40
2023-03-31T15:57:14.838Z,11.30
2023-03-31T16:02:48.662Z,11.40
2023-03-31T16:05:54.482Z,11.50
2023-03-31T16:08:27.524Z,11.60
2023-03-31T16:11:04.893Z,11.70
2023-03-31T16:13:41.923Z,11.80
2023-03-31T16:16:18.698Z,11.80
2023-03-31T16:18:57.906Z,11.80
2023-03-31T16:21:47.284Z,11.80
2023-03-31T16:24:31.183Z,11.80
2023-03-31T16:27:07.753Z,11.90
2023-03-31T16:29:41.032Z,11.90
2023-03-31T16:32:18.942Z,11.90
2023-03-31T16:35:00.209Z,12.00
2023-03-31T16:37:33.242Z,12.00
2023-03-31T16:40:07.179Z,12.10
2023-03-31T16:42:39.799Z,12.10
2023-03-31T16:45:14.931Z,12.10
2023-03-31T16:47:47.857Z,12.00
2023-03-31T16:50:20.672Z,12.00
2023-03-31T16:52:53.414Z,12.00
2023-03-31T16:55:26.194Z,11.90
2023-03-31T16:58:02.834Z,11.90
2023-03-31T17:00:36.766Z,11.80
2023-03-31T17:03:10.491Z,11.80
2023-03-31T17:05:46.404Z,11.80
2023-03-31T17:08:21.536Z,11.70
2023-03-31T17:11:10.983Z,11.70
2023-03-31T17:13:44.607Z,11.70
2023-03-31T17:16:24.360Z,11.60
2023-03-31T17:19:05.413Z,11.70
2023-03-31T17:21:38.674Z,11.60
2023-03-31T17:24:11.421Z,11.60
2023-03-31T17:26:44.845Z,11.50
2023-03-31T17:29:17.534Z,11.50
2023-03-31T17:31:50.647Z,11.40
2023-03-31T17:34:23.562Z,11.40
2023-03-31T17:36:57.011Z,11.30
2023-03-31T17:39:30.022Z,11.20
2023-03-31T17:42:04.279Z,11.10
2023-03-31T17:44:37.122Z,11.10
2023-03-31T17:47:10.008Z,11.00
2023-03-31T17:49:42.842Z,10.90
2023-03-31T17:52:16.155Z,10.90
2023-03-31T17:54:50.326Z,10.90
2023-03-31T17:57:23.777Z,10.90
2023-03-31T17:59:56.830Z,10.90
2023-03-31T18:02:29.763Z,10.90
2023-03-31T18:05:02.771Z,10.80
2023-03-31T18:07:36.393Z,10.80
2023-03-31T18:10:09.913Z,10.80
2023-03-31T18:12:42.588Z,10.70
2023-03-31T18:15:15.815Z,10.70
2023-03-31T18:17:48.828Z,10.70
2023-03-31T18:20:23.175Z,10.70
2023-03-31T18:22:55.850Z,10.70
2023-03-31T18:25:28.750Z,10.80
2023-03-31T18:28:01.678Z,10.90
2023-03-31T18:30:34.586Z,10.90
2023-03-31T18:33:07.631Z,10.90
2023-03-31T18:35:40.800Z,10.90
2023-03-31T18:38:14.302Z,10.90
2023-03-31T18:40:52.410Z,11.00
2023-03-31T18:43:26.086Z,11.00
2023-03-31T18:46:01.235Z,10.90
2023-03-31T18:48:34.769Z,10.90
2023-03-31T18:51:08.213Z,10.90
2023-03-31T18:53:41.380Z,10.80
2023-03-31T18:56:14.089Z,10.80
2023-03-31T18:58:46.870Z,10.80
2023-03-31T19:01:20.405Z,10.80
2023-03-31T19:03:53.282Z,10.80
2023-03-31T19:06:26.822Z,10.80
2023-03-31T19:09:01.062Z,10.80
2023-03-31T19:11:33.768Z,10.80
2023-03-31T19:14:06.783Z,10.80
2023-03-31T19:16:42.240Z,10.80
2023-03-31T19:19:15.291Z,10.80
2023-03-31T19:21:48.480Z,10.80
2023-03-31T19:24:21.477Z,10.70
2023-03-31T19:26:54.318Z,10.70
2023-03-31T19:29:27.972Z,10.70
2023-03-31T19:32:01.514Z,10.70
2023-03-31T19:34:34.203Z,10.70
2023-03-31T19:37:07.517Z,10.70
2023-03-31T19:39:40.190Z,10.70
2023-03-31T19:42:13.125Z,10.70
2023-03-31T19:44:46.162Z,10.60
2023-03-31T19:47:18.960Z,10.50
2023-03-31T19:49:51.703Z,10.50
2023-03-31T19:52:24.532Z,10.50
2023-03-31T19:54:57.252Z,10.40
2023-03-31T19:57:30.254Z,10.40
2023-03-31T20:00:04.912Z,10.40
2023-03-31T20:02:38.444Z,10.40
2023-03-31T20:05:11.345Z,10.30
2023-03-31T20:07:44.089Z,10.30
2023-03-31T20:10:16.779Z,10.30
2023-03-31T20:12:51.528Z,10.30
2023-03-31T20:15:24.181Z,10.30
2023-03-31T20:17:57.083Z,10.30
2023-03-31T20:20:29.751Z,10.20
2023-03-31T20:23:03.875Z,10.20
2023-03-31T20:25:37.651Z,10.20
2023-03-31T20:28:10.715Z,10.20
2023-03-31T20:30:43.359Z,10.20
2023-03-31T20:33:16.563Z,10.30
2023-03-31T20:35:58.319Z,10.30
2023-03-31T20:38:31.081Z,10.30
2023-03-31T20:41:03.930Z,10.30
2023-03-31T20:43:37.114Z,10.20
2023-03-31T20:46:10.565Z,10.20
2023-03-31T20:48:49.405Z,10.20
2023-03-31T20:51:25.283Z,10.20
2023-03-31T20:53:59.688Z,10.20
2023-03-31T20:56:41.383Z,10.20
2023-03-31T20:59:15.084Z,10.20
2023-03-31T21:01:49.511Z,10.20
2023-03-31T21:04:23.077Z,10.10
2023-03-31T21:06:55.868Z,10.10
2023-03-31T21:09:28.559Z,10.10
2023-03-31T21:12:02.562Z,10.10
2023-03-31T21:14:35.645Z,10.10
2023-03-31T21:17:08.404Z,10.00
2023-03-31T21:19:41.215Z,10.00
2023-03-31T21:22:13.895Z,10.00
2023-03-31T21:24:46.658Z,9.90
2023-03-31T21:27:19.292Z,9.90
2023-03-31T21:29:52.032Z,9.80
2023-03-31T21:32:27.841Z,9.80
2023-03-31T21:35:00.588Z,9.80
2023-03-31T21:37:34.184Z,9.80
2023-03-31T21:40:07.810Z,9.80
2023-03-31T21:42:40.693Z,9.80
2023-03-31T21:45:13.486Z,9.80
2023-03-31T21:47:46.193Z,9.80
2023-03-31T21:50:19.026Z,9.80
2023-03-31T21:52:51.882Z,9.80
2023-03-31T21:55:24.721Z,9.70
2023-03-31T21:57:57.356Z,9.70
2023-03-31T22:00:31.425Z,9.80
2023-03-31T22:03:22.197Z,9.70
2023-03-31T22:06:08.928Z,9.80
2023-03-31T22:08:41.719Z,9.80
2023-03-31T22:11:14.803Z,9.80
2023-03-31T22:13:47.782Z,9.80
2023-03-31T22:16:22.550Z,9.70
2023-03-31T22:18:55.337Z,9.70
2023-03-31T22:21:28.178Z,9.70
2023-03-31T22:24:01.426Z,9.70
2023-03-31T22:26:34.326Z,9.70
2023-03-31T22:29:07.214Z,9.70
2023-03-31T22:31:40.066Z,9.80
2023-03-31T22:34:12.753Z,9.80
2023-03-31T22:36:47.117Z,9.80
2023-03-31T22:39:19.772Z,9.80
2023-03-31T22:41:52.556Z,9.80
2023-03-31T22:44:25.432Z,9.80
2023-03-31T22:46:58.598Z,9.90
2023-03-31T22:49:31.553Z,9.90
2023-03-31T22:52:04.407Z,9.90
2023-03-31T22:54:40.028Z,9.90
2023-03-31T22:57:12.778Z,9.80
2023-03-31T22:59:45.666Z,9.80
2023-03-31T23:02:18.366Z,9.70
2023-03-31T23:04:51.325Z,9.70
2023-03-31T23:07:23.980Z,9.70
2023-03-31T23:09:56.649Z,9.70
2023-03-31T23:12:29.275Z,9.70
2023-03-31T23:15:02.397Z,9.70
2023-03-31T23:17:35.494Z,9.70
2023-03-31T23:20:08.780Z,9.70
2023-03-31T23:22:41.455Z,9.60
2023-03-31T23:25:14.278Z,9.70
2023-03-31T23:27:47.664Z,9.60
2023-03-31T23:30:20.374Z,9.50
2023-03-31T23:32:55.180Z,9.50
2023-03-31T23:35:27.938Z,9.40
2023-03-31T23:38:00.738Z,9.40
2023-03-31T23:40:33.631Z,9.30
2023-03-31T23:43:06.718Z,9.40
2023-03-31T23:45:39.438Z,9.30
2023-03-31T23:48:12.142Z,9.30
2023-03-31T23:50:45.603Z,9.20
2023-03-31T23:53:18.298Z,9.20
2023-03-31T23:55:54.768Z,9.10
2023-03-31T23:58:27.453Z,9.10
